createdAt,value
2023-04-10T00:00:38.306Z,51169.91
2023-04-10T00:03:06.141Z,51163.94
2023-04-10T00:05:33.412Z,51185.81
2023-04-10T00:08:00.916Z,51167.91
2023-04-10T00:10:30.502Z,51177.84
2023-04-10T00:12:59.074Z,51171.88
2023-04-10T00:15:26.401Z,51175.88
2023-04-10T00:17:55.479Z,51197.72
2023-04-10T00:20:23.600Z,51157.97
2023-04-10T00:22:50.791Z,51177.84
2023-04-10T00:25:18.051Z,51171.88
2023-04-10T00:27:45.264Z,51165.91
2023-04-10T00:30:12.739Z,51185.81
2023-04-10T00:32:39.842Z,51148.03
2023-04-10T00:35:09.042Z,51171.88
2023-04-10T00:37:36.599Z,51130.13
2023-04-10T00:40:05.161Z,51163.94
2023-04-10T00:42:33.035Z,51165.91
2023-04-10T00:45:00.762Z,51154.00
2023-04-10T00:47:28.966Z,51154.00
2023-04-10T00:49:56.278Z,51157.97
2023-04-10T00:52:26.507Z,51106.28
2023-04-10T00:54:53.561Z,51157.97
2023-04-10T00:57:20.635Z,51171.88
2023-04-10T00:59:48.980Z,51146.03
2023-04-10T01:02:16.227Z,51155.97
2023-04-10T01:04:44.600Z,51140.09
2023-04-10T01:07:39.630Z,51175.88
2023-04-10T01:10:18.299Z,51154.00
2023-04-10T01:13:14.272Z,51136.09
2023-04-10T01:16:02.921Z,51155.97
2023-04-10T01:18:56.306Z,51169.91
2023-04-10T01:21:24.481Z,51157.97
2023-04-10T01:24:30.438Z,51142.06
2023-04-10T01:27:39.302Z,51150.03
2023-04-10T01:30:12.531Z,51144.06
2023-04-10T01:32:41.593Z,51150.03
2023-04-10T01:35:09.759Z,51161.94
2023-04-10T01:37:43.746Z,51154.00
2023-04-10T01:40:15.677Z,51161.94
2023-04-10T01:42:53.325Z,51171.88
2023-04-10T01:45:29.061Z,51140.09
2023-04-10T01:47:56.761Z,51150.03
2023-04-10T01:50:24.791Z,51136.09
2023-04-10T01:52:53.051Z,51159.97
2023-04-10T01:55:25.297Z,51159.97
2023-04-10T01:57:57.930Z,51154.00
2023-04-10T02:00:25.437Z,51163.94
2023-04-10T02:02:53.056Z,51165.91
2023-04-10T02:05:22.139Z,51142.06
2023-04-10T02:08:37.603Z,51148.03
2023-04-10T02:11:34.259Z,51152.00
2023-04-10T02:14:04.675Z,51159.97
2023-04-10T02:16:33.319Z,51161.94
2023-04-10T02:19:02.445Z,51140.09
2023-04-10T02:21:29.620Z,51157.97
2023-04-10T02:23:58.464Z,51177.84
2023-04-10T02:26:25.942Z,51152.00
2023-04-10T02:28:53.131Z,51140.09
2023-04-10T02:31:20.362Z,51154.00
2023-04-10T02:33:48.404Z,51185.81
2023-04-10T02:36:15.632Z,51154.00
2023-04-10T02:38:42.769Z,51150.03
2023-04-10T02:41:11.732Z,51161.94
2023-04-10T02:43:38.983Z,51161.94
2023-04-10T02:46:06.660Z,51150.03
2023-04-10T02:48:38.589Z,51175.88
2023-04-10T02:51:06.869Z,51146.03
2023-04-10T02:53:34.491Z,51132.13
2023-04-10T02:56:02.596Z,51132.13
2023-04-10T02:58:30.668Z,51155.97
2023-04-10T03:00:58.567Z,51148.03
2023-04-10T03:03:51.834Z,51142.06
2023-04-10T03:06:28.912Z,51138.09
2023-04-10T03:08:58.014Z,51140.09
2023-04-10T03:11:27.187Z,51140.09
2023-04-10T03:13:54.880Z,51159.97
2023-04-10T03:16:22.447Z,51116.22
2023-04-10T03:18:49.901Z,51154.00
2023-04-10T03:21:17.311Z,51134.13
2023-04-10T03:23:44.391Z,51136.09
2023-04-10T03:26:11.708Z,51138.09
2023-04-10T03:28:39.860Z,51140.09
2023-04-10T03:31:10.772Z,51138.09
2023-04-10T03:33:39.268Z,51138.09
2023-04-10T03:36:07.673Z,51150.03
2023-04-10T03:38:34.874Z,51136.09
2023-04-10T03:41:02.664Z,51142.06
2023-04-10T03:43:32.202Z,51150.03
2023-04-10T03:46:01.850Z,51154.00
2023-04-10T03:48:30.707Z,51146.03
2023-04-10T03:50:58.340Z,51165.91
2023-04-10T03:53:25.944Z,51159.97
2023-04-10T03:55:54.665Z,51163.94
2023-04-10T03:58:23.396Z,51152.00
2023-04-10T04:00:52.024Z,51165.91
2023-04-10T04:03:33.323Z,51124.19
2023-04-10T04:06:00.561Z,51163.94
2023-04-10T04:08:40.004Z,51138.09
2023-04-10T04:11:20.612Z,51150.03
2023-04-10T04:13:59.631Z,51148.03
2023-04-10T04:16:42.193Z,51150.03
2023-04-10T04:19:22.337Z,51155.97
2023-04-10T04:22:09.875Z,51152.00
2023-04-10T04:25:10.714Z,51124.19
2023-04-10T04:27:55.649Z,51152.00
2023-04-10T04:30:32.585Z,51150.03
2023-04-10T04:33:25.732Z,51140.09
2023-04-10T04:36:02.305Z,51150.03
2023-04-10T04:38:40.004Z,51128.16
2023-04-10T04:41:12.842Z,51146.03
2023-04-10T04:44:10.415Z,51146.03
2023-04-10T04:46:56.147Z,51146.03
2023-04-10T04:49:28.945Z,51134.13
2023-04-10T04:52:25.730Z,51134.13
2023-04-10T04:55:25.256Z,51150.03
2023-04-10T04:58:00.065Z,51148.03
2023-04-10T05:00:56.623Z,51157.97
2023-04-10T05:03:42.720Z,51157.97
2023-04-10T05:06:22.908Z,51134.13
2023-04-10T05:09:10.530Z,51146.03
2023-04-10T05:11:54.497Z,51148.03
2023-04-10T05:14:40.256Z,51142.06
2023-04-10T05:17:20.028Z,51146.03
2023-04-10T05:20:08.326Z,51144.06
2023-04-10T05:22:41.836Z,51167.91
2023-04-10T05:25:24.230Z,51177.84
2023-04-10T05:28:03.522Z,51150.03
2023-04-10T05:30:49.415Z,51159.97
2023-04-10T05:33:34.961Z,51159.97
2023-04-10T05:36:11.310Z,51173.88
2023-04-10T05:38:52.662Z,51152.00
2023-04-10T05:41:52.191Z,51161.94
2023-04-10T05:44:28.209Z,51155.97
2023-04-10T05:47:08.338Z,51161.94
2023-04-10T05:50:05.016Z,51159.97
2023-04-10T05:52:55.550Z,51163.94
2023-04-10T05:55:45.888Z,51152.00
2023-04-10T05:58:22.611Z,51157.97
2023-04-10T06:01:09.748Z,51165.91
2023-04-10T06:03:45.227Z,51155.97
2023-04-10T06:06:13.084Z,51150.03
2023-04-10T06:08:41.239Z,51187.78
2023-04-10T06:11:08.458Z,51175.88
2023-04-10T06:13:36.072Z,51167.91
2023-04-10T06:16:03.908Z,51201.72
2023-04-10T06:18:32.341Z,51152.00
2023-04-10T06:21:02.010Z,51193.75
2023-04-10T06:23:29.223Z,51197.72
2023-04-10T06:25:56.605Z,51179.84
2023-04-10T06:28:23.988Z,51209.66
2023-04-10T06:30:55.415Z,51199.72
2023-04-10T06:33:30.683Z,51187.78
2023-04-10T06:35:59.198Z,51187.78
2023-04-10T06:38:26.498Z,51225.56
2023-04-10T06:40:53.587Z,51215.63
2023-04-10T06:43:20.734Z,51239.47
2023-04-10T06:45:48.970Z,51191.78
2023-04-10T06:48:16.198Z,51181.81
2023-04-10T06:50:43.235Z,51181.81
2023-04-10T06:53:10.316Z,51213.63
2023-04-10T06:55:37.635Z,51205.69
2023-04-10T06:58:04.855Z,51191.78
2023-04-10T07:00:32.333Z,51175.88
2023-04-10T07:02:59.466Z,51195.75
2023-04-10T07:05:27.122Z,51213.63
2023-04-10T07:07:54.550Z,51229.53
2023-04-10T07:10:30.934Z,51231.53
2023-04-10T07:12:58.968Z,51231.53
2023-04-10T07:15:26.207Z,51217.59
2023-04-10T07:17:53.500Z,51243.47
2023-04-10T07:20:20.863Z,51217.59
2023-04-10T07:22:48.011Z,51221.59
2023-04-10T07:25:15.746Z,51237.50
2023-04-10T07:27:45.346Z,51217.59
2023-04-10T07:30:13.921Z,51221.59
2023-04-10T07:32:42.416Z,51227.56
2023-04-10T07:35:12.298Z,51193.75
2023-04-10T07:37:39.951Z,51235.50
2023-04-10T07:40:09.017Z,51241.47
2023-04-10T07:42:39.869Z,51235.50
2023-04-10T07:45:08.236Z,51237.50
2023-04-10T07:47:39.961Z,51215.63
2023-04-10T07:50:08.210Z,51225.56
2023-04-10T07:52:35.435Z,51253.41
2023-04-10T07:55:04.309Z,51245.44
2023-04-10T07:57:32.383Z,51217.59
2023-04-10T07:59:59.798Z,51239.47
2023-04-10T08:02:27.073Z,51255.38
2023-04-10T08:04:54.751Z,51265.31
2023-04-10T08:07:22.777Z,51265.31
2023-04-10T08:09:49.888Z,51231.53
2023-04-10T08:12:17.716Z,51271.28
2023-04-10T08:14:45.304Z,51261.34
2023-04-10T08:17:14.940Z,51249.41
2023-04-10T08:19:43.433Z,51269.31
2023-04-10T08:22:10.755Z,51251.41
2023-04-10T08:24:37.830Z,51259.34
2023-04-10T08:27:04.857Z,51249.41
2023-04-10T08:29:31.946Z,51283.22
2023-04-10T08:32:01.179Z,51259.34
2023-04-10T08:34:28.437Z,51265.31
2023-04-10T08:36:55.742Z,51287.19
2023-04-10T08:39:22.918Z,51293.16
2023-04-10T08:41:50.063Z,51277.25
2023-04-10T08:44:17.644Z,51305.09
2023-04-10T08:46:45.633Z,51273.28
2023-04-10T08:49:32.529Z,51287.19
2023-04-10T08:52:03.558Z,51279.25
2023-04-10T08:54:38.460Z,51313.03
2023-04-10T08:57:09.722Z,51311.06
2023-04-10T08:59:37.948Z,51277.25
2023-04-10T09:02:06.505Z,51285.19
2023-04-10T09:04:33.740Z,51319.00
2023-04-10T09:07:01.325Z,51273.28
2023-04-10T09:09:32.355Z,51301.09
2023-04-10T09:12:02.618Z,51275.25
2023-04-10T09:14:34.624Z,51277.25
2023-04-10T09:17:21.471Z,51317.00
2023-04-10T09:19:49.386Z,51299.13
2023-04-10T09:22:17.027Z,51321.00
2023-04-10T09:24:46.842Z,51303.09
2023-04-10T09:27:38.586Z,51322.97
2023-04-10T09:30:08.383Z,51305.09
2023-04-10T09:32:41.763Z,51328.94
2023-04-10T09:35:14.464Z,51301.09
2023-04-10T09:37:45.219Z,51328.94
2023-04-10T09:40:24.657Z,51279.25
2023-04-10T09:42:53.096Z,51297.13
2023-04-10T09:45:22.448Z,51305.09
2023-04-10T09:48:07.092Z,51317.00
2023-04-10T09:50:40.925Z,51332.91
2023-04-10T09:53:11.304Z,51338.88
2023-04-10T09:55:39.104Z,51303.09
2023-04-10T09:58:07.596Z,51328.94
2023-04-10T10:00:45.381Z,51324.97
2023-04-10T10:03:16.946Z,51348.81
2023-04-10T10:05:51.150Z,51354.78
2023-04-10T10:08:18.510Z,51319.00
2023-04-10T10:10:54.721Z,51350.81
2023-04-10T10:13:31.914Z,51332.91
2023-04-10T10:16:13.362Z,51330.94
2023-04-10T10:19:17.880Z,51328.94
2023-04-10T10:21:46.135Z,51340.88
2023-04-10T10:24:14.149Z,51356.78
2023-04-10T10:26:42.395Z,51338.88
2023-04-10T10:29:14.160Z,51334.91
2023-04-10T10:31:42.734Z,51344.84
2023-04-10T10:34:09.992Z,51330.94
2023-04-10T10:36:38.156Z,51364.72
2023-04-10T10:39:20.192Z,51360.75
2023-04-10T10:42:06.748Z,51352.78
2023-04-10T10:45:05.873Z,51358.75
2023-04-10T10:47:41.182Z,51352.78
2023-04-10T10:50:08.768Z,51354.78
2023-04-10T10:52:47.572Z,51360.75
2023-04-10T10:55:32.670Z,51378.66
2023-04-10T10:58:05.761Z,51374.66
2023-04-10T11:00:51.418Z,51356.78
2023-04-10T11:03:18.772Z,51364.72
2023-04-10T11:06:02.964Z,51358.75
2023-04-10T11:08:35.840Z,51346.84
2023-04-10T11:11:10.882Z,51344.84
2023-04-10T11:13:41.285Z,51390.56
2023-04-10T11:16:10.796Z,51404.50
2023-04-10T11:18:53.380Z,51360.75
2023-04-10T11:21:24.242Z,51358.75
2023-04-10T11:23:52.846Z,51366.72
2023-04-10T11:26:35.486Z,51392.56
2023-04-10T11:29:17.923Z,51372.69
2023-04-10T11:31:57.155Z,51384.59
2023-04-10T11:34:25.425Z,51388.59
2023-04-10T11:36:53.340Z,51380.63
2023-04-10T11:39:21.617Z,51424.38
2023-04-10T11:41:53.983Z,51484.00
2023-04-10T11:44:28.565Z,51501.91
2023-04-10T11:46:55.727Z,51585.41
2023-04-10T11:49:32.883Z,51674.88
2023-04-10T11:52:00.193Z,51758.38
2023-04-10T11:54:29.171Z,51845.88
2023-04-10T11:57:02.160Z,51887.63
2023-04-10T11:59:31.064Z,51905.53
2023-04-10T12:02:09.560Z,51995.00
2023-04-10T12:04:37.959Z,51945.28
2023-04-10T12:07:05.499Z,52010.91
2023-04-10T12:09:32.664Z,52078.53
2023-04-10T12:12:03.583Z,52195.84
2023-04-10T12:14:35.610Z,52219.72
2023-04-10T12:17:04.723Z,52177.94
2023-04-10T12:19:33.342Z,52291.28
2023-04-10T12:22:03.971Z,52215.72
2023-04-10T12:24:51.747Z,52295.28
2023-04-10T12:27:26.592Z,52269.41
2023-04-10T12:29:56.600Z,52279.38
2023-04-10T12:32:25.761Z,52199.81
2023-04-10T12:34:58.367Z,52283.34
2023-04-10T12:37:49.989Z,52343.00
2023-04-10T12:40:18.089Z,52561.75
2023-04-10T12:42:45.126Z,52613.47
2023-04-10T12:45:14.170Z,52549.81
2023-04-10T12:47:52.188Z,52527.94
2023-04-10T12:50:21.141Z,52444.44
2023-04-10T12:53:09.374Z,52547.84
2023-04-10T12:55:36.568Z,52529.94
2023-04-10T12:58:22.850Z,52609.50
2023-04-10T13:00:50.107Z,52551.81
2023-04-10T13:03:17.287Z,52392.72
2023-04-10T13:05:45.175Z,52553.81
2023-04-10T13:08:12.267Z,52589.59
2023-04-10T13:10:40.686Z,52595.56
2023-04-10T13:13:08.423Z,52448.41
2023-04-10T13:15:35.689Z,52335.03
2023-04-10T13:18:05.187Z,52275.38
2023-04-10T13:20:37.858Z,52404.66
2023-04-10T13:23:05.422Z,52525.97
2023-04-10T13:25:35.705Z,52275.38
2023-04-10T13:28:03.559Z,52271.41
2023-04-10T13:30:31.360Z,52271.41
2023-04-10T13:32:58.528Z,52329.09
2023-04-10T13:35:25.611Z,52468.28
2023-04-10T13:37:55.270Z,52516.03
2023-04-10T13:40:22.453Z,52452.38
2023-04-10T13:42:49.576Z,52096.41
2023-04-10T13:45:16.784Z,52175.97
2023-04-10T13:47:44.033Z,52331.06
2023-04-10T13:50:11.480Z,52573.69
2023-04-10T13:52:38.684Z,52446.41
2023-04-10T13:55:07.274Z,52601.53
2023-04-10T13:57:34.463Z,52498.13
2023-04-10T14:00:01.720Z,52456.34
2023-04-10T14:02:39.962Z,51989.03
2023-04-10T14:05:08.342Z,51806.09
2023-04-10T14:07:35.715Z,51776.28
2023-04-10T14:10:03.160Z,51963.19
2023-04-10T14:12:30.292Z,52122.28
2023-04-10T14:14:57.334Z,52354.94
2023-04-10T14:17:24.826Z,52464.31
2023-04-10T14:19:53.804Z,52458.34
2023-04-10T14:22:21.227Z,52283.34
2023-04-10T14:24:48.961Z,52187.88
2023-04-10T14:27:17.236Z,52273.41
2023-04-10T14:29:53.896Z,52358.91
2023-04-10T14:32:22.383Z,52064.59
2023-04-10T14:34:49.677Z,52175.97
2023-04-10T14:37:19.058Z,52175.97
2023-04-10T14:39:46.481Z,52281.34
2023-04-10T14:42:13.733Z,52275.38
2023-04-10T14:44:41.146Z,52124.25
2023-04-10T14:47:08.567Z,52187.88
2023-04-10T14:49:35.762Z,52305.22
2023-04-10T14:52:02.964Z,52152.09
2023-04-10T14:54:30.317Z,52239.59
2023-04-10T14:56:58.266Z,52106.34
2023-04-10T14:59:26.834Z,52072.56
2023-04-10T15:01:54.480Z,52062.63
2023-04-10T15:04:24.396Z,52297.25
2023-04-10T15:07:07.075Z,52406.63
2023-04-10T15:09:37.516Z,52408.63
2023-04-10T15:12:04.956Z,52408.63
2023-04-10T15:14:35.069Z,52494.16
2023-04-10T15:17:02.264Z,52464.31
2023-04-10T15:19:29.556Z,52384.75
2023-04-10T15:21:56.913Z,52311.19
2023-04-10T15:24:24.070Z,52418.56
2023-04-10T15:26:53.510Z,52406.63
2023-04-10T15:29:20.653Z,52490.16
2023-04-10T15:31:48.053Z,52358.91
2023-04-10T15:34:15.377Z,52271.41
2023-04-10T15:36:42.752Z,52211.75
2023-04-10T15:39:10.988Z,52154.09
2023-04-10T15:41:38.452Z,51997.00
2023-04-10T15:44:05.996Z,52004.94
2023-04-10T15:46:34.204Z,51933.38
2023-04-10T15:49:01.357Z,51887.63
2023-04-10T15:51:28.448Z,51963.19
2023-04-10T15:53:56.049Z,51837.91
2023-04-10T15:56:23.358Z,51837.91
2023-04-10T15:58:50.414Z,51953.25
2023-04-10T16:01:17.597Z,51973.13
2023-04-10T16:03:45.363Z,51973.13
2023-04-10T16:06:13.469Z,51931.38
2023-04-10T16:08:40.602Z,51893.59
2023-04-10T16:11:07.761Z,51963.19
2023-04-10T16:13:34.828Z,51925.41
2023-04-10T16:16:02.020Z,51925.41
2023-04-10T16:18:29.164Z,51913.47
2023-04-10T16:20:56.357Z,51855.81
2023-04-10T16:23:23.448Z,51833.94
2023-04-10T16:25:50.735Z,51752.41
2023-04-10T16:28:17.862Z,51720.59
2023-04-10T16:30:45.134Z,51662.94
2023-04-10T16:33:12.185Z,51623.19
2023-04-10T16:35:39.483Z,51581.44
2023-04-10T16:38:06.601Z,51539.69
2023-04-10T16:40:33.731Z,51511.84
2023-04-10T16:43:01.976Z,51513.84
2023-04-10T16:45:29.402Z,51480.03
2023-04-10T16:47:56.648Z,51462.16
2023-04-10T16:50:24.002Z,51509.84
2023-04-10T16:52:51.258Z,51499.91
2023-04-10T16:55:18.530Z,51491.97
2023-04-10T16:57:46.342Z,51497.94
2023-04-10T17:00:14.149Z,51482.03
2023-04-10T17:02:42.970Z,51507.88
2023-04-10T17:05:11.147Z,51493.94
2023-04-10T17:07:38.383Z,51478.03
2023-04-10T17:10:06.214Z,51474.06
2023-04-10T17:12:33.323Z,51452.19
2023-04-10T17:15:00.459Z,51448.22
2023-04-10T17:17:27.718Z,51432.31
2023-04-10T17:19:55.075Z,51400.50
2023-04-10T17:22:23.394Z,51372.69
2023-04-10T17:24:50.657Z,51368.69
2023-04-10T17:27:17.890Z,51370.69
2023-04-10T17:29:44.989Z,51366.72
2023-04-10T17:32:12.122Z,51380.63
2023-04-10T17:34:39.206Z,51372.69
2023-04-10T17:37:06.370Z,51340.88
2023-04-10T17:39:33.496Z,51346.84
2023-04-10T17:42:01.513Z,51324.97
2023-04-10T17:44:28.655Z,51313.03
2023-04-10T17:46:55.823Z,51340.88
2023-04-10T17:49:23.045Z,51297.13
2023-04-10T17:51:50.392Z,51326.94
2023-04-10T17:54:17.525Z,51301.09
2023-04-10T17:56:44.777Z,51334.91
2023-04-10T17:59:11.956Z,51257.38
2023-04-10T18:01:39.251Z,51324.97
2023-04-10T18:04:07.150Z,51275.25
2023-04-10T18:06:34.566Z,51291.16
2023-04-10T18:09:01.670Z,51279.25
2023-04-10T18:11:28.809Z,51313.03
2023-04-10T18:13:55.862Z,51277.25
2023-04-10T18:16:23.052Z,51297.13
2023-04-10T18:18:50.256Z,51275.25
2023-04-10T18:21:17.563Z,51281.22
2023-04-10T18:23:44.842Z,51293.16
2023-04-10T18:26:12.795Z,51281.22
2023-04-10T18:28:42.013Z,51289.19
2023-04-10T18:31:09.234Z,51255.38
2023-04-10T18:33:36.423Z,51269.31
2023-04-10T18:36:03.956Z,51253.41
2023-04-10T18:38:31.177Z,51251.41
2023-04-10T18:40:58.486Z,51283.22
2023-04-10T18:43:27.603Z,51271.28
2023-04-10T18:45:55.339Z,51249.41
2023-04-10T18:48:22.817Z,51281.22
2023-04-10T18:50:53.315Z,51275.25
2023-04-10T18:53:23.776Z,51249.41
2023-04-10T18:55:52.896Z,51269.31
2023-04-10T18:58:21.803Z,51277.25
2023-04-10T19:00:49.253Z,51253.41
2023-04-10T19:03:16.726Z,51281.22
2023-04-10T19:05:44.765Z,51287.19
2023-04-10T19:08:14.540Z,51249.41
2023-04-10T19:10:42.967Z,51223.56
2023-04-10T19:13:11.934Z,51243.47
2023-04-10T19:15:46.044Z,51243.47
2023-04-10T19:18:15.055Z,51253.41
2023-04-10T19:20:50.970Z,51245.44
2023-04-10T19:23:20.638Z,51209.66
2023-04-10T19:25:53.326Z,51243.47
2023-04-10T19:28:20.617Z,51249.41
2023-04-10T19:30:47.941Z,51233.50
2023-04-10T19:33:15.105Z,51265.31
2023-04-10T19:35:42.220Z,51271.28
2023-04-10T19:38:09.393Z,51245.44
2023-04-10T19:40:36.854Z,51225.56
2023-04-10T19:43:04.243Z,51279.25
2023-04-10T19:45:33.064Z,51267.31
2023-04-10T19:48:00.513Z,51253.41
2023-04-10T19:50:30.551Z,51269.31
2023-04-10T19:52:58.074Z,51235.50
2023-04-10T19:55:26.039Z,51245.44
2023-04-10T19:57:53.289Z,51227.56
2023-04-10T20:00:20.778Z,51245.44
2023-04-10T20:02:48.216Z,51255.38
2023-04-10T20:05:15.623Z,51253.41
2023-04-10T20:07:42.904Z,51235.50
2023-04-10T20:10:10.288Z,51225.56
2023-04-10T20:12:37.435Z,51237.50
2023-04-10T20:15:05.459Z,51237.50
2023-04-10T20:17:32.570Z,51281.22
2023-04-10T20:19:59.794Z,51241.47
2023-04-10T20:22:27.118Z,51253.41
2023-04-10T20:24:54.249Z,51261.34
2023-04-10T20:27:21.336Z,51227.56
2023-04-10T20:29:48.517Z,51247.44
2023-04-10T20:32:15.788Z,51237.50
2023-04-10T20:34:42.925Z,51235.50
2023-04-10T20:37:10.117Z,51253.41
2023-04-10T20:39:38.558Z,51235.50
2023-04-10T20:42:06.603Z,51223.56
2023-04-10T20:44:37.698Z,51225.56
2023-04-10T20:47:08.161Z,51227.56
2023-04-10T20:49:37.568Z,51225.56
2023-04-10T20:52:08.618Z,51203.69
2023-04-10T20:54:36.107Z,51221.59
2023-04-10T20:57:06.025Z,51207.66
2023-04-10T20:59:33.537Z,51227.56
2023-04-10T21:02:00.930Z,51243.47
2023-04-10T21:04:28.045Z,51197.72
2023-04-10T21:06:55.324Z,51215.63
2023-04-10T21:09:22.405Z,51199.72
2023-04-10T21:11:49.460Z,51227.56
2023-04-10T21:14:16.574Z,51217.59
2023-04-10T21:16:45.773Z,51209.66
2023-04-10T21:19:13.459Z,51255.38
2023-04-10T21:21:40.578Z,51237.50
2023-04-10T21:24:07.728Z,51219.59
2023-04-10T21:26:34.853Z,51203.69
2023-04-10T21:29:02.064Z,51219.59
2023-04-10T21:31:29.256Z,51221.59
2023-04-10T21:33:56.413Z,51191.78
2023-04-10T21:36:23.665Z,51237.50
2023-04-10T21:38:50.831Z,51233.50
2023-04-10T21:41:17.987Z,51235.50
2023-04-10T21:43:45.299Z,51181.81
2023-04-10T21:46:12.471Z,51217.59
2023-04-10T21:48:39.692Z,51237.50
2023-04-10T21:51:07.017Z,51217.59
2023-04-10T21:53:34.131Z,51221.59
2023-04-10T21:56:01.235Z,51239.47
2023-04-10T21:58:28.330Z,51219.59
2023-04-10T22:00:55.470Z,51249.41
2023-04-10T22:03:23.228Z,51205.69
2023-04-10T22:05:50.692Z,51209.66
2023-04-10T22:08:19.965Z,51223.56
2023-04-10T22:10:48.179Z,51211.66
2023-04-10T22:13:27.325Z,51199.72
2023-04-10T22:15:57.253Z,51225.56
2023-04-10T22:18:24.364Z,51225.56
2023-04-10T22:20:51.490Z,51195.75
2023-04-10T22:23:18.692Z,51221.59
2023-04-10T22:25:45.802Z,51193.75
2023-04-10T22:28:13.059Z,51201.72
2023-04-10T22:30:40.187Z,51193.75
2023-04-10T22:33:07.406Z,51209.66
2023-04-10T22:35:34.570Z,51205.69
2023-04-10T22:38:03.837Z,51187.78
2023-04-10T22:40:31.600Z,51215.63
2023-04-10T22:42:58.664Z,51249.41
2023-04-10T22:45:25.946Z,51217.59
2023-04-10T22:47:53.003Z,51201.72
2023-04-10T22:50:21.175Z,51189.78
2023-04-10T22:52:48.335Z,51193.75
2023-04-10T22:55:15.400Z,51199.72
2023-04-10T22:57:42.522Z,51207.66
2023-04-10T23:00:10.395Z,51227.56
2023-04-10T23:02:37.559Z,51205.69
2023-04-10T23:05:05.344Z,51191.78
2023-04-10T23:07:32.503Z,51193.75
2023-04-10T23:10:00.746Z,51177.84
2023-04-10T23:12:27.804Z,51177.84
2023-04-10T23:14:54.944Z,51205.69
2023-04-10T23:17:22.095Z,51231.53
2023-04-10T23:19:49.149Z,51207.66
2023-04-10T23:22:16.722Z,51203.69
2023-04-10T23:24:43.796Z,51191.78
2023-04-10T23:27:10.856Z,51195.75
2023-04-10T23:29:37.891Z,51165.91
2023-04-10T23:32:05.137Z,51205.69
2023-04-10T23:34:32.193Z,51185.81
2023-04-10T23:36:59.391Z,51221.59
2023-04-10T23:39:26.467Z,51195.75
2023-04-10T23:41:53.555Z,51187.78
2023-04-10T23:44:20.630Z,51221.59
2023-04-10T23:46:49.426Z,51193.75
2023-04-10T23:49:17.630Z,51205.69
2023-04-10T23:51:45.582Z,51219.59
2023-04-10T23:54:13.446Z,51207.66
2023-04-10T23:56:40.937Z,51189.78
2023-04-10T23:59:08.031Z,51209.66
